createdAt,value
2023-04-27T00:02:21.049Z,12.00
2023-04-27T00:04:48.352Z,11.70
2023-04-27T00:07:17.744Z,12.30
2023-04-27T00:09:44.479Z,12.70
2023-04-27T00:12:11.624Z,11.00
2023-04-27T00:14:38.180Z,12.60
2023-04-27T00:17:04.758Z,12.30
2023-04-27T00:19:31.854Z,12.10
2023-04-27T00:22:01.181Z,12.40
2023-04-27T00:24:28.101Z,12.00
2023-04-27T00:26:54.639Z,12.20
2023-04-27T00:29:21.210Z,13.50
2023-04-27T00:31:48.886Z,12.20
2023-04-27T00:34:15.345Z,12.50
2023-04-27T00:36:49.528Z,12.10
2023-04-27T00:39:16.428Z,12.30
2023-04-27T00:41:43.315Z,12.80
2023-04-27T00:44:12.259Z,12.50
2023-04-27T00:46:38.935Z,13.00
2023-04-27T00:49:07.389Z,12.30
2023-04-27T00:51:37.536Z,13.20
2023-04-27T00:54:07.026Z,13.20
2023-04-27T00:56:39.004Z,13.20
2023-04-27T00:59:10.340Z,12.40
2023-04-27T01:01:39.152Z,12.70
2023-04-27T01:04:06.272Z,13.10
2023-04-27T01:06:33.767Z,12.90
2023-04-27T01:09:01.885Z,13.20
2023-04-27T01:46:16.399Z,14.00
2023-04-27T01:48:45.951Z,14.40
2023-04-27T01:51:14.807Z,14.60
2023-04-27T01:53:41.719Z,13.80
2023-04-27T01:56:09.674Z,13.60
2023-04-27T01:58:38.343Z,14.50
2023-04-27T02:01:04.871Z,14.40
2023-04-27T02:03:33.905Z,15.00
2023-04-27T02:06:03.149Z,14.90
2023-04-27T02:08:34.171Z,13.60
2023-04-27T02:11:03.171Z,13.60
2023-04-27T02:13:29.737Z,14.00
2023-04-27T02:16:02.635Z,13.40
2023-04-27T02:18:33.032Z,14.70
2023-04-27T02:20:59.426Z,14.20
2023-04-27T02:23:31.044Z,14.60
2023-04-27T02:26:05.531Z,14.60
2023-04-27T02:28:32.313Z,13.00
2023-04-27T02:31:02.625Z,13.30
2023-04-27T02:33:29.332Z,14.00
2023-04-27T02:35:57.252Z,14.00
2023-04-27T02:38:23.859Z,13.90
2023-04-27T02:40:56.189Z,13.70
2023-04-27T02:43:25.098Z,13.30
2023-04-27T02:45:56.602Z,13.70
2023-04-27T02:48:26.126Z,13.10
2023-04-27T02:50:52.553Z,14.00
2023-04-27T02:53:21.410Z,14.50
2023-04-27T02:55:53.065Z,14.00
2023-04-27T02:58:22.024Z,13.80
2023-04-27T03:00:54.988Z,13.40
2023-04-27T03:03:22.585Z,13.40
2023-04-27T03:05:49.436Z,14.40
2023-04-27T03:08:15.936Z,15.70
2023-04-27T03:10:42.549Z,15.20
2023-04-27T03:13:11.173Z,15.50
2023-04-27T03:15:40.479Z,14.20
2023-04-27T03:18:19.575Z,15.50
2023-04-27T03:21:18.062Z,13.90
2023-04-27T03:23:51.511Z,10.70
2023-04-27T03:26:18.206Z,14.20
2023-04-27T03:28:44.766Z,14.10
2023-04-27T03:31:16.037Z,14.80
2023-04-27T03:33:42.711Z,14.70
2023-04-27T03:36:14.782Z,13.90
2023-04-27T03:38:41.972Z,13.50
2023-04-27T03:41:12.957Z,14.00
2023-04-27T03:43:41.735Z,13.80
2023-04-27T03:46:08.530Z,14.20
2023-04-27T03:48:35.971Z,14.20
2023-04-27T03:51:02.833Z,15.20
2023-04-27T03:53:31.759Z,14.40
2023-04-27T03:56:03.827Z,14.80
2023-04-27T03:58:32.904Z,14.40
2023-04-27T04:01:18.231Z,13.70
2023-04-27T04:03:45.528Z,13.70
2023-04-27T04:06:12.418Z,14.30
2023-04-27T04:08:41.502Z,14.00
2023-04-27T04:11:08.452Z,13.60
2023-04-27T04:13:35.951Z,13.10
2023-04-27T04:16:06.371Z,13.90
2023-04-27T04:18:34.191Z,13.40
2023-04-27T04:21:01.193Z,14.20
2023-04-27T04:23:32.119Z,13.80
2023-04-27T04:26:03.535Z,13.70
2023-04-27T04:28:36.464Z,14.50
2023-04-27T04:31:08.939Z,15.50
2023-04-27T04:33:35.672Z,14.10
2023-04-27T04:36:05.348Z,15.20
2023-04-27T04:38:33.231Z,15.20
2023-04-27T04:41:06.703Z,15.30
2023-04-27T04:43:41.947Z,14.70
2023-04-27T04:46:08.610Z,14.50
2023-04-27T04:48:36.280Z,15.10
2023-04-27T04:51:05.673Z,14.90
2023-04-27T04:53:34.827Z,15.90
2023-04-27T04:56:12.260Z,16.20
2023-04-27T04:59:06.765Z,16.20
2023-04-27T05:01:38.880Z,15.20
2023-04-27T05:04:06.029Z,16.30
2023-04-27T05:06:33.231Z,16.20
2023-04-27T05:09:00.260Z,16.60
2023-04-27T05:11:26.811Z,16.80
2023-04-27T05:13:55.734Z,15.30
2023-04-27T05:16:25.905Z,13.00
2023-04-27T05:18:54.141Z,12.40
2023-04-27T05:21:21.548Z,12.30
2023-04-27T06:02:02.042Z,10.80
2023-04-27T06:04:29.273Z,9.10
2023-04-27T06:07:00.705Z,9.10
2023-04-27T06:09:29.499Z,9.80
2023-04-27T06:12:02.179Z,9.00
2023-04-27T06:17:00.317Z,9.10
2023-04-27T06:19:30.638Z,9.10
2023-04-27T06:21:57.543Z,9.40
2023-04-27T06:24:29.048Z,9.10
2023-04-27T06:26:56.435Z,9.10
2023-04-27T06:29:27.568Z,8.90
2023-04-27T06:31:54.397Z,8.20
2023-04-27T06:34:20.980Z,9.30
2023-04-27T06:36:51.435Z,8.10
2023-04-27T06:39:43.328Z,7.60
2023-04-27T06:42:21.680Z,8.10
2023-04-27T06:44:48.908Z,8.90
2023-04-27T07:56:32.626Z,4.90
2023-04-27T07:58:59.872Z,5.00
2023-04-27T08:01:26.656Z,5.50
2023-04-27T08:03:54.207Z,6.30
2023-04-27T08:06:22.017Z,4.70
2023-04-27T08:08:49.176Z,4.40
2023-04-27T08:11:16.121Z,4.10
2023-04-27T08:13:45.298Z,3.60
2023-04-27T08:16:16.766Z,4.20
2023-04-27T08:18:50.288Z,4.30
2023-04-27T08:21:19.757Z,3.80
2023-04-27T08:23:46.348Z,3.90
2023-04-27T08:26:18.316Z,4.40
2023-04-27T08:28:48.565Z,4.00
2023-04-27T08:31:21.426Z,3.90
2023-04-27T08:33:52.703Z,2.90
2023-04-27T08:36:23.758Z,4.30
2023-04-27T08:38:53.159Z,4.20
2023-04-27T08:41:22.223Z,3.70
2023-04-27T08:43:54.461Z,3.40
2023-04-27T08:46:26.403Z,2.60
2023-04-27T08:48:53.861Z,2.80
2023-04-27T08:51:27.028Z,2.90
2023-04-27T08:53:57.812Z,4.10
2023-04-27T08:56:32.094Z,3.90
2023-04-27T08:59:00.152Z,3.20
2023-04-27T09:01:26.869Z,4.20
2023-04-27T09:04:01.963Z,3.40
2023-04-27T09:06:35.026Z,2.90
2023-04-27T09:09:02.532Z,3.10
2023-04-27T09:11:30.866Z,3.50
2023-04-27T09:13:59.674Z,3.80
2023-04-27T09:16:30.016Z,3.50
2023-04-27T09:18:57.879Z,3.40
2023-04-27T09:21:28.886Z,2.70
2023-04-27T09:23:56.238Z,3.00
2023-04-27T09:26:25.321Z,3.50
2023-04-27T09:28:55.141Z,3.00
2023-04-27T09:31:22.210Z,2.60
2023-04-27T09:33:55.449Z,2.60
2023-04-27T09:36:24.704Z,2.70
2023-04-27T09:38:51.953Z,3.00
2023-04-27T09:41:19.197Z,2.40
2023-04-27T09:43:48.386Z,2.50
2023-04-27T09:46:15.579Z,2.50
2023-04-27T09:48:42.157Z,1.80
2023-04-27T09:51:08.732Z,2.10
2023-04-27T09:53:52.091Z,2.40
2023-04-27T09:56:57.302Z,2.50
2023-04-27T10:00:10.092Z,2.00
2023-04-27T10:02:53.593Z,2.40
2023-04-27T10:05:48.157Z,1.90
2023-04-27T10:08:14.966Z,2.50
2023-04-27T10:10:52.638Z,2.50
2023-04-27T10:13:24.045Z,2.20
2023-04-27T10:15:53.299Z,2.60
2023-04-27T10:18:32.883Z,2.30
2023-04-27T10:21:12.091Z,2.30
2023-04-27T10:23:47.658Z,2.20
2023-04-27T10:26:24.303Z,2.60
2023-04-27T10:29:03.833Z,2.30
2023-04-27T10:31:30.598Z,2.30
2023-04-27T10:34:08.275Z,2.50
2023-04-27T10:36:38.981Z,2.70
2023-04-27T10:39:25.571Z,2.40
2023-04-27T10:42:01.606Z,2.00
2023-04-27T10:44:30.757Z,2.10
2023-04-27T10:46:59.912Z,2.00
2023-04-27T10:49:29.554Z,2.00
2023-04-27T10:52:03.975Z,1.80
2023-04-27T10:54:31.287Z,1.80
2023-04-27T10:57:08.611Z,1.60
2023-04-27T11:55:35.352Z,2.40
2023-04-27T11:58:02.153Z,2.00
2023-04-27T12:00:28.878Z,1.90
2023-04-27T12:02:58.162Z,2.00
2023-04-27T12:05:27.965Z,2.50
2023-04-27T12:07:59.616Z,1.60
2023-04-27T12:10:28.668Z,2.40
2023-04-27T12:12:55.357Z,1.70
2023-04-27T12:15:21.950Z,2.00
2023-04-27T12:17:53.254Z,2.20
2023-04-27T12:20:20.449Z,2.10
2023-04-27T13:00:26.023Z,2.90
2023-04-27T13:27:22.538Z,3.10
2023-04-27T14:17:00.575Z,2.00
2023-04-27T14:19:34.394Z,2.00
2023-04-27T14:22:09.628Z,2.70
2023-04-27T14:27:08.794Z,2.10
2023-04-27T14:29:39.668Z,1.70
2023-04-27T14:32:09.411Z,1.90
2023-04-27T14:34:42.864Z,2.50
2023-04-27T14:37:13.387Z,2.20
2023-04-27T14:39:45.383Z,2.90
2023-04-27T14:42:13.959Z,2.90
2023-04-27T14:44:44.424Z,2.70
2023-04-27T14:47:15.253Z,3.10
2023-04-27T16:06:04.269Z,4.10
2023-04-27T16:08:37.215Z,4.00
2023-04-27T16:11:13.166Z,4.30
2023-04-27T16:13:41.858Z,3.80
2023-04-27T16:16:12.294Z,3.50
2023-04-27T16:18:40.349Z,3.90
2023-04-27T16:21:08.417Z,4.30
2023-04-27T16:23:39.140Z,4.50
2023-04-27T16:26:07.158Z,3.60
2023-04-27T16:28:39.968Z,4.30
2023-04-27T16:33:41.257Z,3.50
2023-04-27T16:36:11.820Z,4.40
2023-04-27T16:38:42.363Z,4.30
2023-04-27T16:56:13.748Z,4.80
2023-04-27T16:58:50.935Z,4.70
2023-04-27T17:41:01.180Z,5.30
2023-04-27T17:43:31.778Z,5.80
2023-04-27T17:46:10.554Z,5.40
2023-04-27T17:48:42.234Z,6.40
2023-04-27T17:51:13.011Z,5.30
2023-04-27T17:53:42.780Z,7.20
2023-04-27T17:56:19.581Z,6.90
2023-04-27T17:58:47.894Z,6.10
2023-04-27T18:01:21.932Z,6.10
2023-04-27T18:17:23.061Z,7.30
2023-04-27T18:20:07.025Z,7.20
2023-04-27T18:22:37.904Z,8.10
2023-04-27T18:25:09.312Z,7.60
2023-04-27T18:27:37.899Z,8.30
2023-04-27T18:30:09.093Z,8.60
2023-04-27T18:32:37.888Z,8.40
2023-04-27T18:35:08.483Z,8.40
2023-04-27T18:37:38.723Z,9.30
2023-04-27T18:40:08.235Z,9.20
2023-04-27T18:42:37.039Z,9.40
2023-04-27T18:45:05.876Z,9.40
2023-04-27T18:47:34.164Z,9.90
2023-04-27T18:50:02.340Z,10.20
2023-04-27T18:52:30.868Z,10.30
2023-04-27T18:54:59.253Z,9.90
2023-04-27T18:57:27.575Z,10.10
2023-04-27T18:59:56.217Z,10.60
2023-04-27T19:02:26.076Z,10.00
2023-04-27T19:05:10.894Z,10.50
2023-04-27T19:07:40.358Z,11.30
2023-04-27T19:10:09.304Z,12.70
2023-04-27T19:12:40.590Z,13.90
2023-04-27T19:15:09.429Z,14.70
2023-04-27T19:17:40.886Z,15.00
2023-04-27T19:20:09.743Z,14.60
2023-04-27T19:22:39.975Z,14.40
2023-04-27T19:25:11.309Z,14.80
2023-04-27T19:27:41.463Z,15.60
2023-04-27T19:32:43.535Z,16.50
2023-04-27T19:35:14.897Z,20.30
2023-04-27T19:37:43.510Z,22.20
2023-04-27T19:40:19.133Z,21.40
2023-04-27T19:42:49.981Z,22.60
2023-04-27T19:45:22.192Z,22.70
2023-04-27T19:47:50.548Z,20.80
2023-04-27T19:50:23.248Z,20.50
2023-04-27T19:52:52.214Z,20.20
2023-04-27T19:55:20.489Z,20.20
2023-04-27T19:57:48.558Z,19.60
2023-04-27T20:00:18.812Z,18.80
2023-04-27T20:02:46.826Z,18.30
2023-04-27T20:05:15.610Z,18.20
2023-04-27T20:07:44.267Z,18.20
2023-04-27T20:10:16.084Z,17.20
2023-04-27T20:12:55.462Z,16.90
2023-04-27T20:15:24.799Z,16.70
2023-04-27T20:17:53.382Z,17.40
2023-04-27T20:20:23.932Z,18.30
2023-04-27T20:22:51.979Z,18.80
2023-04-27T20:25:21.007Z,19.60
2023-04-27T20:27:51.418Z,19.90
2023-04-27T20:30:23.180Z,19.90
2023-04-27T20:32:51.338Z,21.10
2023-04-27T20:35:19.916Z,22.00
2023-04-27T20:37:48.327Z,21.00
2023-04-27T20:40:19.032Z,21.60
2023-04-27T20:42:51.960Z,21.40
2023-04-27T20:45:20.141Z,20.70
2023-04-27T20:47:48.260Z,20.80
2023-04-27T20:50:19.073Z,20.30
2023-04-27T20:52:47.588Z,20.10
2023-04-27T20:55:15.594Z,18.90
2023-04-27T20:57:43.942Z,19.50
2023-04-27T21:00:15.827Z,18.90
2023-04-27T21:02:44.235Z,19.40
2023-04-27T21:05:12.608Z,18.60
2023-04-27T21:07:40.806Z,19.00
2023-04-27T21:10:09.022Z,18.70
2023-04-27T21:12:37.105Z,18.70
2023-04-27T21:15:05.870Z,19.60
2023-04-27T21:17:34.085Z,19.40
2023-04-27T21:20:04.566Z,19.40
2023-04-27T21:22:32.886Z,19.00
2023-04-27T21:25:01.283Z,19.30
2023-04-27T21:27:29.361Z,20.00
2023-04-27T21:29:58.840Z,19.10
2023-04-27T21:32:29.391Z,19.30
2023-04-27T21:34:59.686Z,19.60
2023-04-27T21:37:30.544Z,20.40
2023-04-27T21:40:00.768Z,22.20
2023-04-27T21:42:28.651Z,21.00
2023-04-27T21:44:56.959Z,20.30
2023-04-27T21:47:24.952Z,21.50
2023-04-27T21:49:53.138Z,19.90
2023-04-27T21:52:26.180Z,20.70
2023-04-27T21:54:56.816Z,21.20
2023-04-27T21:57:24.727Z,21.80
2023-04-27T21:59:57.758Z,22.30
2023-04-27T22:02:30.855Z,23.20
2023-04-27T22:05:02.583Z,24.10
2023-04-27T22:07:32.593Z,24.50
2023-04-27T22:10:00.759Z,24.40
2023-04-27T22:12:28.782Z,23.80
2023-04-27T22:14:56.733Z,24.40
2023-04-27T22:17:25.127Z,22.90
2023-04-27T22:19:55.721Z,24.30
2023-04-27T22:22:23.707Z,22.60
2023-04-27T22:24:53.987Z,23.40
2023-04-27T22:27:21.881Z,21.80
2023-04-27T22:29:50.231Z,23.50
2023-04-27T22:32:18.210Z,23.40
2023-04-27T22:34:46.411Z,26.70
2023-04-27T22:37:16.887Z,30.40
2023-04-27T22:43:18.317Z,30.50
2023-04-27T22:45:46.477Z,30.70
2023-04-27T22:48:14.778Z,31.40
2023-04-27T22:50:43.027Z,29.80
2023-04-27T22:53:10.856Z,28.50
2023-04-27T22:55:41.142Z,30.50
2023-04-27T22:58:09.175Z,30.00
2023-04-27T23:00:37.013Z,29.30
2023-04-27T23:03:11.424Z,29.20
2023-04-27T23:05:42.533Z,29.30
2023-04-27T23:08:10.786Z,28.10
2023-04-27T23:10:38.961Z,29.70
2023-04-27T23:13:12.849Z,29.20
2023-04-27T23:15:43.210Z,27.60
2023-04-27T23:18:11.340Z,28.10
2023-04-27T23:20:39.263Z,29.60
2023-04-27T23:23:09.868Z,28.60
2023-04-27T23:25:37.737Z,29.90
2023-04-27T23:28:10.598Z,30.90
2023-04-27T23:30:38.514Z,31.20
2023-04-27T23:33:11.160Z,29.80
2023-04-27T23:35:41.737Z,28.70
2023-04-27T23:38:12.097Z,28.60
2023-04-27T23:40:42.598Z,30.30
2023-04-27T23:43:13.195Z,28.30
2023-04-27T23:45:41.260Z,26.50
2023-04-27T23:48:11.987Z,26.10
2023-04-27T23:50:42.599Z,29.50
2023-04-27T23:53:15.520Z,26.60
2023-04-27T23:55:46.254Z,28.40
2023-04-27T23:58:18.677Z,25.80
